sensor_id;sensor_type;location;lat;lon;timestamp;P1;durP1;ratioP1;P2;durP2;ratioP2
18754;SDS011;35061;47.664;9.166;2023-04-06T00:02:07;8.32;;;7.07;;
18754;SDS011;35061;47.664;9.166;2023-04-06T00:04:35;9.88;;;6.60;;
18754;SDS011;35061;47.664;9.166;2023-04-06T00:07:02;8.23;;;6.87;;
18754;SDS011;35061;47.664;9.166;2023-04-06T00:09:31;9.27;;;6.60;;
18754;SDS011;35061;47.664;9.166;2023-04-06T00:11:58;10.95;;;6.87;;
18754;SDS011;35061;47.664;9.166;2023-04-06T00:14:27;9.52;;;8.05;;
18754;SDS011;35061;47.664;9.166;2023-04-06T00:16:55;8.48;;;6.97;;
18754;SDS011;35061;47.664;9.166;2023-04-06T00:19:23;9.18;;;7.43;;
18754;SDS011;35061;47.664;9.166;2023-04-06T00:21:51;7.47;;;6.37;;
18754;SDS011;35061;47.664;9.166;2023-04-06T00:24:19;10.07;;;6.57;;
18754;SDS011;35061;47.664;9.166;2023-04-06T00:26:47;7.72;;;6.85;;
18754;SDS011;35061;47.664;9.166;2023-04-06T00:29:15;7.40;;;6.10;;
18754;SDS011;35061;47.664;9.166;2023-04-06T00:31:43;8.77;;;6.72;;
18754;SDS011;35061;47.664;9.166;2023-04-06T00:34:11;9.60;;;6.05;;
18754;SDS011;35061;47.664;9.166;2023-04-06T00:36:39;7.75;;;6.07;;
18754;SDS011;35061;47.664;9.166;2023-04-06T00:39:08;7.57;;;6.00;;
18754;SDS011;35061;47.664;9.166;2023-04-06T00:41:36;7.40;;;5.75;;
18754;SDS011;35061;47.664;9.166;2023-04-06T00:44:04;6.85;;;6.15;;
18754;SDS011;35061;47.664;9.166;2023-04-06T00:46:32;8.30;;;5.80;;
18754;SDS011;35061;47.664;9.166;2023-04-06T00:49:00;9.27;;;5.55;;
18754;SDS011;35061;47.664;9.166;2023-04-06T00:51:28;7.47;;;5.50;;
18754;SDS011;35061;47.664;9.166;2023-04-06T00:53:56;9.70;;;6.35;;
18754;SDS011;35061;47.664;9.166;2023-04-06T00:56:24;7.40;;;5.57;;
18754;SDS011;35061;47.664;9.166;2023-04-06T00:58:53;7.65;;;6.37;;
18754;SDS011;35061;47.664;9.166;2023-04-06T01:01:22;7.22;;;5.55;;
18754;SDS011;35061;47.664;9.166;2023-04-06T01:03:51;8.65;;;6.00;;
18754;SDS011;35061;47.664;9.166;2023-04-06T01:06:19;9.95;;;6.07;;
18754;SDS011;35061;47.664;9.166;2023-04-06T01:08:47;7.55;;;6.25;;
18754;SDS011;35061;47.664;9.166;2023-04-06T01:11:15;7.50;;;6.28;;
18754;SDS011;35061;47.664;9.166;2023-04-06T01:13:45;9.65;;;6.22;;
18754;SDS011;35061;47.664;9.166;2023-04-06T01:16:13;6.87;;;5.82;;
18754;SDS011;35061;47.664;9.166;2023-04-06T01:18:42;6.90;;;5.78;;
18754;SDS011;35061;47.664;9.166;2023-04-06T01:21:10;7.20;;;5.62;;
18754;SDS011;35061;47.664;9.166;2023-04-06T01:23:44;8.77;;;5.97;;
18754;SDS011;35061;47.664;9.166;2023-04-06T01:26:13;8.48;;;6.95;;
18754;SDS011;35061;47.664;9.166;2023-04-06T01:28:41;9.15;;;6.30;;
18754;SDS011;35061;47.664;9.166;2023-04-06T01:31:09;8.13;;;6.37;;
18754;SDS011;35061;47.664;9.166;2023-04-06T01:33:38;7.50;;;5.60;;
18754;SDS011;35061;47.664;9.166;2023-04-06T01:36:06;6.97;;;5.85;;
18754;SDS011;35061;47.664;9.166;2023-04-06T01:38:34;6.65;;;5.53;;
18754;SDS011;35061;47.664;9.166;2023-04-06T01:41:03;7.43;;;5.47;;
18754;SDS011;35061;47.664;9.166;2023-04-06T01:43:31;6.18;;;5.53;;
18754;SDS011;35061;47.664;9.166;2023-04-06T01:45:59;6.75;;;5.22;;
18754;SDS011;35061;47.664;9.166;2023-04-06T01:48:27;8.02;;;5.85;;
18754;SDS011;35061;47.664;9.166;2023-04-06T01:50:55;7.40;;;6.37;;
18754;SDS011;35061;47.664;9.166;2023-04-06T01:53:23;7.25;;;5.62;;
18754;SDS011;35061;47.664;9.166;2023-04-06T01:55:51;8.00;;;5.62;;
18754;SDS011;35061;47.664;9.166;2023-04-06T01:58:19;7.80;;;5.97;;
18754;SDS011;35061;47.664;9.166;2023-04-06T02:00:47;6.95;;;5.80;;
18754;SDS011;35061;47.664;9.166;2023-04-06T02:03:15;8.30;;;6.15;;
18754;SDS011;35061;47.664;9.166;2023-04-06T02:05:43;6.65;;;5.62;;
18754;SDS011;35061;47.664;9.166;2023-04-06T02:08:11;7.32;;;5.55;;
18754;SDS011;35061;47.664;9.166;2023-04-06T02:10:39;8.25;;;5.75;;
18754;SDS011;35061;47.664;9.166;2023-04-06T02:13:07;7.70;;;5.70;;
18754;SDS011;35061;47.664;9.166;2023-04-06T02:15:35;6.85;;;5.53;;
18754;SDS011;35061;47.664;9.166;2023-04-06T02:18:03;8.30;;;5.62;;
18754;SDS011;35061;47.664;9.166;2023-04-06T02:20:31;7.43;;;5.95;;
18754;SDS011;35061;47.664;9.166;2023-04-06T02:22:59;7.90;;;6.15;;
18754;SDS011;35061;47.664;9.166;2023-04-06T02:25:28;8.15;;;6.00;;
18754;SDS011;35061;47.664;9.166;2023-04-06T02:27:56;8.73;;;6.07;;
18754;SDS011;35061;47.664;9.166;2023-04-06T02:30:23;7.55;;;5.93;;
18754;SDS011;35061;47.664;9.166;2023-04-06T02:32:51;11.20;;;6.72;;
18754;SDS011;35061;47.664;9.166;2023-04-06T02:35:19;8.30;;;5.82;;
18754;SDS011;35061;47.664;9.166;2023-04-06T02:37:47;8.55;;;6.45;;
18754;SDS011;35061;47.664;9.166;2023-04-06T02:40:15;7.07;;;5.95;;
18754;SDS011;35061;47.664;9.166;2023-04-06T02:42:43;7.47;;;6.07;;
18754;SDS011;35061;47.664;9.166;2023-04-06T02:45:11;6.30;;;5.57;;
18754;SDS011;35061;47.664;9.166;2023-04-06T02:47:39;7.93;;;6.25;;
18754;SDS011;35061;47.664;9.166;2023-04-06T02:50:08;8.07;;;6.45;;
18754;SDS011;35061;47.664;9.166;2023-04-06T02:52:36;7.00;;;5.85;;
18754;SDS011;35061;47.664;9.166;2023-04-06T02:55:04;8.45;;;6.12;;
18754;SDS011;35061;47.664;9.166;2023-04-06T02:57:34;7.25;;;5.78;;
18754;SDS011;35061;47.664;9.166;2023-04-06T03:00:03;7.72;;;6.10;;
18754;SDS011;35061;47.664;9.166;2023-04-06T03:02:32;8.07;;;6.18;;
18754;SDS011;35061;47.664;9.166;2023-04-06T03:05:00;7.05;;;5.62;;
18754;SDS011;35061;47.664;9.166;2023-04-06T03:07:30;6.57;;;5.85;;
18754;SDS011;35061;47.664;9.166;2023-04-06T03:09:58;8.15;;;6.47;;
18754;SDS011;35061;47.664;9.166;2023-04-06T03:12:26;7.90;;;6.03;;
18754;SDS011;35061;47.664;9.166;2023-04-06T03:14:54;8.77;;;6.25;;
18754;SDS011;35061;47.664;9.166;2023-04-06T03:17:22;7.82;;;5.68;;
18754;SDS011;35061;47.664;9.166;2023-04-06T03:19:50;10.65;;;6.53;;
18754;SDS011;35061;47.664;9.166;2023-04-06T03:22:19;8.32;;;6.65;;
18754;SDS011;35061;47.664;9.166;2023-04-06T03:24:47;8.60;;;6.50;;
18754;SDS011;35061;47.664;9.166;2023-04-06T03:27:15;7.70;;;6.15;;
18754;SDS011;35061;47.664;9.166;2023-04-06T03:29:43;9.50;;;6.50;;
18754;SDS011;35061;47.664;9.166;2023-04-06T03:32:11;7.30;;;5.82;;
18754;SDS011;35061;47.664;9.166;2023-04-06T03:34:39;8.27;;;6.43;;
18754;SDS011;35061;47.664;9.166;2023-04-06T03:37:07;9.43;;;6.68;;
18754;SDS011;35061;47.664;9.166;2023-04-06T03:39:36;8.48;;;6.65;;
18754;SDS011;35061;47.664;9.166;2023-04-06T03:42:04;8.15;;;6.37;;
18754;SDS011;35061;47.664;9.166;2023-04-06T03:44:32;7.62;;;6.47;;
18754;SDS011;35061;47.664;9.166;2023-04-06T03:47:00;8.00;;;6.40;;
18754;SDS011;35061;47.664;9.166;2023-04-06T03:49:28;9.02;;;6.97;;
18754;SDS011;35061;47.664;9.166;2023-04-06T03:51:56;9.95;;;7.03;;
18754;SDS011;35061;47.664;9.166;2023-04-06T03:54:24;9.15;;;6.32;;
18754;SDS011;35061;47.664;9.166;2023-04-06T03:56:52;8.05;;;6.35;;
18754;SDS011;35061;47.664;9.166;2023-04-06T03:59:20;7.97;;;6.68;;
18754;SDS011;35061;47.664;9.166;2023-04-06T04:01:48;9.18;;;6.72;;
18754;SDS011;35061;47.664;9.166;2023-04-06T04:04:16;11.27;;;6.97;;
18754;SDS011;35061;47.664;9.166;2023-04-06T04:06:44;8.73;;;6.57;;
18754;SDS011;35061;47.664;9.166;2023-04-06T04:09:12;7.80;;;6.32;;
18754;SDS011;35061;47.664;9.166;2023-04-06T04:11:40;8.55;;;7.10;;
18754;SDS011;35061;47.664;9.166;2023-04-06T04:14:08;7.60;;;6.05;;
18754;SDS011;35061;47.664;9.166;2023-04-06T04:16:35;8.00;;;7.18;;
18754;SDS011;35061;47.664;9.166;2023-04-06T04:19:04;9.85;;;6.75;;
18754;SDS011;35061;47.664;9.166;2023-04-06T04:21:32;9.10;;;7.10;;
18754;SDS011;35061;47.664;9.166;2023-04-06T04:24:00;11.23;;;8.10;;
18754;SDS011;35061;47.664;9.166;2023-04-06T04:26:28;10.10;;;7.87;;
18754;SDS011;35061;47.664;9.166;2023-04-06T04:28:56;9.93;;;7.53;;
18754;SDS011;35061;47.664;9.166;2023-04-06T04:31:24;10.13;;;6.72;;
18754;SDS011;35061;47.664;9.166;2023-04-06T04:33:52;8.90;;;7.12;;
18754;SDS011;35061;47.664;9.166;2023-04-06T04:36:20;9.55;;;7.93;;
18754;SDS011;35061;47.664;9.166;2023-04-06T04:38:48;9.82;;;7.15;;
18754;SDS011;35061;47.664;9.166;2023-04-06T04:41:16;10.57;;;7.93;;
18754;SDS011;35061;47.664;9.166;2023-04-06T04:43:44;9.27;;;7.40;;
18754;SDS011;35061;47.664;9.166;2023-04-06T04:46:12;8.35;;;6.97;;
18754;SDS011;35061;47.664;9.166;2023-04-06T04:48:40;7.90;;;7.07;;
18754;SDS011;35061;47.664;9.166;2023-04-06T04:51:08;9.32;;;7.40;;
18754;SDS011;35061;47.664;9.166;2023-04-06T04:53:36;11.90;;;8.10;;
18754;SDS011;35061;47.664;9.166;2023-04-06T04:56:04;8.82;;;7.32;;
18754;SDS011;35061;47.664;9.166;2023-04-06T04:58:32;9.35;;;7.57;;
18754;SDS011;35061;47.664;9.166;2023-04-06T05:01:00;12.37;;;7.85;;
18754;SDS011;35061;47.664;9.166;2023-04-06T05:03:28;11.18;;;7.43;;
18754;SDS011;35061;47.664;9.166;2023-04-06T05:05:56;13.27;;;8.15;;
18754;SDS011;35061;47.664;9.166;2023-04-06T05:08:24;11.65;;;7.93;;
18754;SDS011;35061;47.664;9.166;2023-04-06T05:10:52;10.88;;;7.20;;
18754;SDS011;35061;47.664;9.166;2023-04-06T05:13:20;10.35;;;7.32;;
18754;SDS011;35061;47.664;9.166;2023-04-06T05:15:48;10.32;;;7.35;;
18754;SDS011;35061;47.664;9.166;2023-04-06T05:18:16;9.05;;;7.25;;
18754;SDS011;35061;47.664;9.166;2023-04-06T05:20:44;8.48;;;7.50;;
18754;SDS011;35061;47.664;9.166;2023-04-06T05:23:12;13.18;;;7.60;;
18754;SDS011;35061;47.664;9.166;2023-04-06T05:25:40;8.93;;;6.75;;
18754;SDS011;35061;47.664;9.166;2023-04-06T05:28:08;10.85;;;7.47;;
18754;SDS011;35061;47.664;9.166;2023-04-06T05:30:36;10.55;;;7.65;;
18754;SDS011;35061;47.664;9.166;2023-04-06T05:33:04;11.75;;;7.32;;
18754;SDS011;35061;47.664;9.166;2023-04-06T05:35:32;9.88;;;7.22;;
18754;SDS011;35061;47.664;9.166;2023-04-06T05:38:01;9.48;;;7.72;;
18754;SDS011;35061;47.664;9.166;2023-04-06T05:40:29;13.05;;;7.50;;
18754;SDS011;35061;47.664;9.166;2023-04-06T05:42:57;11.48;;;8.68;;
18754;SDS011;35061;47.664;9.166;2023-04-06T05:45:25;10.80;;;8.02;;
18754;SDS011;35061;47.664;9.166;2023-04-06T05:47:53;11.60;;;8.18;;
18754;SDS011;35061;47.664;9.166;2023-04-06T05:50:21;12.63;;;8.05;;
18754;SDS011;35061;47.664;9.166;2023-04-06T05:52:50;12.23;;;9.15;;
18754;SDS011;35061;47.664;9.166;2023-04-06T05:55:18;13.60;;;9.10;;
18754;SDS011;35061;47.664;9.166;2023-04-06T05:57:46;12.07;;;8.73;;
18754;SDS011;35061;47.664;9.166;2023-04-06T06:00:14;12.90;;;8.65;;
18754;SDS011;35061;47.664;9.166;2023-04-06T06:02:42;13.20;;;9.23;;
18754;SDS011;35061;47.664;9.166;2023-04-06T06:05:10;10.48;;;8.52;;
18754;SDS011;35061;47.664;9.166;2023-04-06T06:07:38;11.35;;;8.70;;
18754;SDS011;35061;47.664;9.166;2023-04-06T06:10:07;10.98;;;8.63;;
18754;SDS011;35061;47.664;9.166;2023-04-06T06:12:35;11.90;;;8.45;;
18754;SDS011;35061;47.664;9.166;2023-04-06T06:15:04;10.85;;;8.10;;
18754;SDS011;35061;47.664;9.166;2023-04-06T06:17:32;13.35;;;9.20;;
18754;SDS011;35061;47.664;9.166;2023-04-06T06:20:05;12.30;;;9.32;;
18754;SDS011;35061;47.664;9.166;2023-04-06T06:22:34;12.98;;;9.55;;
18754;SDS011;35061;47.664;9.166;2023-04-06T06:25:02;16.65;;;8.50;;
18754;SDS011;35061;47.664;9.166;2023-04-06T06:27:30;12.57;;;8.90;;
18754;SDS011;35061;47.664;9.166;2023-04-06T06:29:58;14.05;;;9.30;;
18754;SDS011;35061;47.664;9.166;2023-04-06T06:32:26;14.43;;;9.65;;
18754;SDS011;35061;47.664;9.166;2023-04-06T06:34:54;11.15;;;9.05;;
18754;SDS011;35061;47.664;9.166;2023-04-06T06:37:22;11.12;;;8.35;;
18754;SDS011;35061;47.664;9.166;2023-04-06T06:39:50;12.73;;;9.32;;
18754;SDS011;35061;47.664;9.166;2023-04-06T06:42:18;9.73;;;8.68;;
18754;SDS011;35061;47.664;9.166;2023-04-06T06:44:46;10.55;;;8.07;;
18754;SDS011;35061;47.664;9.166;2023-04-06T06:47:14;12.60;;;9.30;;
18754;SDS011;35061;47.664;9.166;2023-04-06T06:49:42;12.25;;;8.00;;
18754;SDS011;35061;47.664;9.166;2023-04-06T06:52:10;13.05;;;10.55;;
18754;SDS011;35061;47.664;9.166;2023-04-06T06:54:38;12.60;;;9.48;;
18754;SDS011;35061;47.664;9.166;2023-04-06T06:57:07;11.32;;;8.80;;
18754;SDS011;35061;47.664;9.166;2023-04-06T06:59:34;13.38;;;8.02;;
18754;SDS011;35061;47.664;9.166;2023-04-06T07:02:03;9.98;;;8.68;;
18754;SDS011;35061;47.664;9.166;2023-04-06T07:04:31;12.07;;;10.15;;
18754;SDS011;35061;47.664;9.166;2023-04-06T07:06:59;12.65;;;8.95;;
18754;SDS011;35061;47.664;9.166;2023-04-06T07:09:27;10.30;;;8.38;;
18754;SDS011;35061;47.664;9.166;2023-04-06T07:11:55;12.43;;;8.77;;
18754;SDS011;35061;47.664;9.166;2023-04-06T07:14:24;11.35;;;8.63;;
18754;SDS011;35061;47.664;9.166;2023-04-06T07:16:52;10.55;;;8.32;;
18754;SDS011;35061;47.664;9.166;2023-04-06T07:19:19;11.02;;;8.30;;
18754;SDS011;35061;47.664;9.166;2023-04-06T07:21:47;12.05;;;9.18;;
18754;SDS011;35061;47.664;9.166;2023-04-06T07:24:17;11.75;;;9.98;;
18754;SDS011;35061;47.664;9.166;2023-04-06T07:26:45;13.68;;;9.50;;
18754;SDS011;35061;47.664;9.166;2023-04-06T07:29:13;10.88;;;8.95;;
18754;SDS011;35061;47.664;9.166;2023-04-06T07:31:41;11.88;;;9.40;;
18754;SDS011;35061;47.664;9.166;2023-04-06T07:34:09;12.63;;;9.05;;
18754;SDS011;35061;47.664;9.166;2023-04-06T07:36:37;9.32;;;8.32;;
18754;SDS011;35061;47.664;9.166;2023-04-06T07:39:05;12.43;;;9.35;;
18754;SDS011;35061;47.664;9.166;2023-04-06T07:41:34;10.55;;;8.52;;
18754;SDS011;35061;47.664;9.166;2023-04-06T07:44:03;10.45;;;8.55;;
18754;SDS011;35061;47.664;9.166;2023-04-06T07:46:32;10.65;;;8.68;;
18754;SDS011;35061;47.664;9.166;2023-04-06T07:49:00;9.32;;;8.38;;
18754;SDS011;35061;47.664;9.166;2023-04-06T07:51:28;10.93;;;8.65;;
18754;SDS011;35061;47.664;9.166;2023-04-06T07:53:57;13.68;;;9.13;;
18754;SDS011;35061;47.664;9.166;2023-04-06T07:56:25;12.00;;;9.65;;
18754;SDS011;35061;47.664;9.166;2023-04-06T07:58:53;10.85;;;8.50;;
18754;SDS011;35061;47.664;9.166;2023-04-06T08:01:24;10.82;;;8.80;;
18754;SDS011;35061;47.664;9.166;2023-04-06T08:03:52;12.25;;;9.20;;
18754;SDS011;35061;47.664;9.166;2023-04-06T08:06:22;10.30;;;8.43;;
18754;SDS011;35061;47.664;9.166;2023-04-06T08:08:50;13.00;;;9.15;;
18754;SDS011;35061;47.664;9.166;2023-04-06T08:11:18;13.05;;;8.23;;
18754;SDS011;35061;47.664;9.166;2023-04-06T08:13:45;13.15;;;7.87;;
18754;SDS011;35061;47.664;9.166;2023-04-06T08:16:14;12.00;;;8.65;;
18754;SDS011;35061;47.664;9.166;2023-04-06T08:18:42;11.75;;;9.20;;
18754;SDS011;35061;47.664;9.166;2023-04-06T08:21:10;12.02;;;7.97;;
18754;SDS011;35061;47.664;9.166;2023-04-06T08:23:38;12.10;;;8.10;;
18754;SDS011;35061;47.664;9.166;2023-04-06T08:26:06;10.40;;;7.80;;
18754;SDS011;35061;47.664;9.166;2023-04-06T08:28:34;10.35;;;8.65;;
18754;SDS011;35061;47.664;9.166;2023-04-06T08:31:03;9.98;;;8.98;;
18754;SDS011;35061;47.664;9.166;2023-04-06T08:33:34;17.37;;;11.10;;
18754;SDS011;35061;47.664;9.166;2023-04-06T08:36:10;11.00;;;8.77;;
18754;SDS011;35061;47.664;9.166;2023-04-06T08:38:40;10.77;;;8.27;;
18754;SDS011;35061;47.664;9.166;2023-04-06T08:41:12;9.60;;;7.68;;
18754;SDS011;35061;47.664;9.166;2023-04-06T08:43:46;8.80;;;7.80;;
18754;SDS011;35061;47.664;9.166;2023-04-06T08:46:15;9.43;;;7.97;;
18754;SDS011;35061;47.664;9.166;2023-04-06T08:48:45;10.40;;;8.40;;
18754;SDS011;35061;47.664;9.166;2023-04-06T08:51:17;12.20;;;8.65;;
18754;SDS011;35061;47.664;9.166;2023-04-06T08:53:46;13.15;;;8.10;;
18754;SDS011;35061;47.664;9.166;2023-04-06T08:56:16;9.52;;;8.38;;
18754;SDS011;35061;47.664;9.166;2023-04-06T08:58:44;10.27;;;8.65;;
18754;SDS011;35061;47.664;9.166;2023-04-06T09:01:12;12.60;;;9.02;;
18754;SDS011;35061;47.664;9.166;2023-04-06T09:03:42;12.37;;;8.45;;
18754;SDS011;35061;47.664;9.166;2023-04-06T09:06:12;10.88;;;8.80;;
18754;SDS011;35061;47.664;9.166;2023-04-06T09:08:41;12.48;;;8.60;;
18754;SDS011;35061;47.664;9.166;2023-04-06T09:11:10;10.13;;;8.65;;
18754;SDS011;35061;47.664;9.166;2023-04-06T09:13:51;10.23;;;9.10;;
18754;SDS011;35061;47.664;9.166;2023-04-06T09:16:24;9.48;;;7.72;;
18754;SDS011;35061;47.664;9.166;2023-04-06T09:18:53;9.15;;;8.13;;
18754;SDS011;35061;47.664;9.166;2023-04-06T09:21:21;10.88;;;8.60;;
18754;SDS011;35061;47.664;9.166;2023-04-06T09:24:00;12.80;;;8.20;;
18754;SDS011;35061;47.664;9.166;2023-04-06T09:26:32;10.13;;;8.27;;
18754;SDS011;35061;47.664;9.166;2023-04-06T09:29:21;10.07;;;8.00;;
18754;SDS011;35061;47.664;9.166;2023-04-06T09:31:50;10.18;;;8.25;;
18754;SDS011;35061;47.664;9.166;2023-04-06T09:34:22;11.18;;;8.52;;
18754;SDS011;35061;47.664;9.166;2023-04-06T09:36:51;10.98;;;8.70;;
18754;SDS011;35061;47.664;9.166;2023-04-06T09:39:22;12.00;;;8.93;;
18754;SDS011;35061;47.664;9.166;2023-04-06T09:41:51;12.05;;;7.85;;
18754;SDS011;35061;47.664;9.166;2023-04-06T09:44:20;12.50;;;8.90;;
18754;SDS011;35061;47.664;9.166;2023-04-06T09:46:48;9.80;;;8.15;;
18754;SDS011;35061;47.664;9.166;2023-04-06T09:49:30;12.48;;;8.68;;
18754;SDS011;35061;47.664;9.166;2023-04-06T09:52:03;10.82;;;8.75;;
18754;SDS011;35061;47.664;9.166;2023-04-06T09:54:35;9.52;;;8.35;;
18754;SDS011;35061;47.664;9.166;2023-04-06T09:57:15;10.20;;;8.40;;
18754;SDS011;35061;47.664;9.166;2023-04-06T10:00:05;9.10;;;7.30;;
18754;SDS011;35061;47.664;9.166;2023-04-06T10:05:29;9.43;;;7.03;;
18754;SDS011;35061;47.664;9.166;2023-04-06T10:08:04;9.07;;;8.10;;
18754;SDS011;35061;47.664;9.166;2023-04-06T10:10:35;10.35;;;8.40;;
18754;SDS011;35061;47.664;9.166;2023-04-06T10:13:03;8.75;;;7.35;;
18754;SDS011;35061;47.664;9.166;2023-04-06T10:15:32;8.93;;;7.03;;
18754;SDS011;35061;47.664;9.166;2023-04-06T10:18:01;10.50;;;8.48;;
18754;SDS011;35061;47.664;9.166;2023-04-06T10:20:46;9.45;;;8.43;;
18754;SDS011;35061;47.664;9.166;2023-04-06T10:23:21;10.95;;;7.57;;
18754;SDS011;35061;47.664;9.166;2023-04-06T10:26:02;9.38;;;7.90;;
18754;SDS011;35061;47.664;9.166;2023-04-06T10:28:35;9.05;;;8.02;;
18754;SDS011;35061;47.664;9.166;2023-04-06T10:31:06;10.63;;;8.48;;
18754;SDS011;35061;47.664;9.166;2023-04-06T10:33:34;10.05;;;8.00;;
18754;SDS011;35061;47.664;9.166;2023-04-06T10:36:21;10.35;;;9.02;;
18754;SDS011;35061;47.664;9.166;2023-04-06T10:38:58;8.77;;;7.65;;
18754;SDS011;35061;47.664;9.166;2023-04-06T10:41:33;13.52;;;8.85;;
18754;SDS011;35061;47.664;9.166;2023-04-06T10:44:02;11.48;;;8.55;;
18754;SDS011;35061;47.664;9.166;2023-04-06T10:46:32;11.15;;;8.20;;
18754;SDS011;35061;47.664;9.166;2023-04-06T10:49:10;11.63;;;8.35;;
18754;SDS011;35061;47.664;9.166;2023-04-06T10:51:41;9.73;;;7.93;;
18754;SDS011;35061;47.664;9.166;2023-04-06T10:54:09;9.68;;;7.85;;
18754;SDS011;35061;47.664;9.166;2023-04-06T10:56:38;14.20;;;8.68;;
18754;SDS011;35061;47.664;9.166;2023-04-06T10:59:07;9.80;;;7.95;;
18754;SDS011;35061;47.664;9.166;2023-04-06T11:01:35;8.73;;;7.82;;
18754;SDS011;35061;47.664;9.166;2023-04-06T11:04:03;11.65;;;8.55;;
18754;SDS011;35061;47.664;9.166;2023-04-06T11:06:32;11.20;;;9.18;;
18754;SDS011;35061;47.664;9.166;2023-04-06T11:09:00;9.63;;;8.55;;
18754;SDS011;35061;47.664;9.166;2023-04-06T11:11:28;9.95;;;7.97;;
18754;SDS011;35061;47.664;9.166;2023-04-06T11:13:57;13.13;;;8.30;;
18754;SDS011;35061;47.664;9.166;2023-04-06T11:16:30;10.63;;;8.55;;
18754;SDS011;35061;47.664;9.166;2023-04-06T11:19:00;11.38;;;8.30;;
18754;SDS011;35061;47.664;9.166;2023-04-06T11:21:33;8.07;;;7.20;;
18754;SDS011;35061;47.664;9.166;2023-04-06T11:26:43;9.35;;;6.32;;
18754;SDS011;35061;47.664;9.166;2023-04-06T11:29:13;6.47;;;5.55;;
18754;SDS011;35061;47.664;9.166;2023-04-06T11:31:50;5.50;;;4.40;;
18754;SDS011;35061;47.664;9.166;2023-04-06T11:34:20;4.85;;;4.35;;
18754;SDS011;35061;47.664;9.166;2023-04-06T11:36:57;7.12;;;5.20;;
18754;SDS011;35061;47.664;9.166;2023-04-06T11:39:27;6.68;;;5.05;;
18754;SDS011;35061;47.664;9.166;2023-04-06T11:42:01;6.87;;;5.47;;
18754;SDS011;35061;47.664;9.166;2023-04-06T11:44:37;7.25;;;5.40;;
18754;SDS011;35061;47.664;9.166;2023-04-06T11:47:07;6.45;;;4.62;;
18754;SDS011;35061;47.664;9.166;2023-04-06T11:49:38;5.70;;;4.70;;
18754;SDS011;35061;47.664;9.166;2023-04-06T11:52:23;6.32;;;5.43;;
18754;SDS011;35061;47.664;9.166;2023-04-06T11:54:52;6.37;;;4.75;;
18754;SDS011;35061;47.664;9.166;2023-04-06T11:57:22;11.55;;;4.20;;
18754;SDS011;35061;47.664;9.166;2023-04-06T11:59:52;5.95;;;4.28;;
18754;SDS011;35061;47.664;9.166;2023-04-06T12:02:21;4.55;;;3.78;;
18754;SDS011;35061;47.664;9.166;2023-04-06T12:04:49;5.37;;;4.45;;
18754;SDS011;35061;47.664;9.166;2023-04-06T12:07:17;5.80;;;4.95;;
18754;SDS011;35061;47.664;9.166;2023-04-06T12:09:45;4.90;;;4.10;;
18754;SDS011;35061;47.664;9.166;2023-04-06T12:12:13;6.85;;;5.25;;
18754;SDS011;35061;47.664;9.166;2023-04-06T12:14:41;5.32;;;4.75;;
18754;SDS011;35061;47.664;9.166;2023-04-06T12:17:09;6.00;;;5.15;;
18754;SDS011;35061;47.664;9.166;2023-04-06T12:19:37;7.40;;;4.53;;
18754;SDS011;35061;47.664;9.166;2023-04-06T12:22:05;6.53;;;5.05;;
18754;SDS011;35061;47.664;9.166;2023-04-06T12:24:33;4.70;;;4.22;;
18754;SDS011;35061;47.664;9.166;2023-04-06T12:27:01;6.15;;;4.57;;
18754;SDS011;35061;47.664;9.166;2023-04-06T12:29:36;5.55;;;4.50;;
18754;SDS011;35061;47.664;9.166;2023-04-06T12:32:04;6.53;;;4.70;;
18754;SDS011;35061;47.664;9.166;2023-04-06T12:34:33;6.68;;;4.80;;
18754;SDS011;35061;47.664;9.166;2023-04-06T12:37:01;4.57;;;3.62;;
18754;SDS011;35061;47.664;9.166;2023-04-06T12:39:29;5.57;;;4.03;;
18754;SDS011;35061;47.664;9.166;2023-04-06T12:41:58;5.07;;;4.05;;
18754;SDS011;35061;47.664;9.166;2023-04-06T12:44:26;6.32;;;4.53;;
18754;SDS011;35061;47.664;9.166;2023-04-06T12:46:54;5.62;;;4.03;;
18754;SDS011;35061;47.664;9.166;2023-04-06T12:49:23;3.53;;;3.17;;
18754;SDS011;35061;47.664;9.166;2023-04-06T12:51:51;4.25;;;3.83;;
18754;SDS011;35061;47.664;9.166;2023-04-06T12:54:19;5.00;;;4.20;;
18754;SDS011;35061;47.664;9.166;2023-04-06T12:56:47;5.57;;;4.37;;
18754;SDS011;35061;47.664;9.166;2023-04-06T12:59:15;4.28;;;3.80;;
18754;SDS011;35061;47.664;9.166;2023-04-06T13:01:43;4.55;;;3.75;;
18754;SDS011;35061;47.664;9.166;2023-04-06T13:04:12;7.70;;;5.18;;
18754;SDS011;35061;47.664;9.166;2023-04-06T13:06:40;4.53;;;4.07;;
18754;SDS011;35061;47.664;9.166;2023-04-06T13:09:08;7.57;;;4.53;;
18754;SDS011;35061;47.664;9.166;2023-04-06T13:11:36;4.50;;;3.47;;
18754;SDS011;35061;47.664;9.166;2023-04-06T13:14:04;3.47;;;3.17;;
18754;SDS011;35061;47.664;9.166;2023-04-06T13:16:32;4.62;;;4.15;;
18754;SDS011;35061;47.664;9.166;2023-04-06T13:19:00;5.53;;;4.12;;
18754;SDS011;35061;47.664;9.166;2023-04-06T13:21:28;4.82;;;3.65;;
18754;SDS011;35061;47.664;9.166;2023-04-06T13:23:57;8.38;;;3.65;;
18754;SDS011;35061;47.664;9.166;2023-04-06T13:26:26;5.00;;;4.05;;
18754;SDS011;35061;47.664;9.166;2023-04-06T13:28:54;5.43;;;3.95;;
18754;SDS011;35061;47.664;9.166;2023-04-06T13:31:24;4.32;;;3.75;;
18754;SDS011;35061;47.664;9.166;2023-04-06T13:33:52;6.32;;;4.30;;
18754;SDS011;35061;47.664;9.166;2023-04-06T13:36:20;5.47;;;4.50;;
18754;SDS011;35061;47.664;9.166;2023-04-06T13:38:48;6.65;;;4.43;;
18754;SDS011;35061;47.664;9.166;2023-04-06T13:41:23;5.72;;;4.65;;
18754;SDS011;35061;47.664;9.166;2023-04-06T13:43:53;6.68;;;4.57;;
18754;SDS011;35061;47.664;9.166;2023-04-06T13:46:22;5.03;;;4.53;;
18754;SDS011;35061;47.664;9.166;2023-04-06T13:48:51;5.78;;;4.32;;
18754;SDS011;35061;47.664;9.166;2023-04-06T13:51:19;5.45;;;4.32;;
18754;SDS011;35061;47.664;9.166;2023-04-06T13:53:47;5.05;;;4.05;;
18754;SDS011;35061;47.664;9.166;2023-04-06T13:56:17;6.25;;;4.30;;
18754;SDS011;35061;47.664;9.166;2023-04-06T13:58:45;7.15;;;4.22;;
18754;SDS011;35061;47.664;9.166;2023-04-06T14:01:13;6.03;;;4.32;;
18754;SDS011;35061;47.664;9.166;2023-04-06T14:03:42;5.95;;;4.12;;
18754;SDS011;35061;47.664;9.166;2023-04-06T14:06:13;6.57;;;4.80;;
18754;SDS011;35061;47.664;9.166;2023-04-06T14:08:45;6.20;;;4.80;;
18754;SDS011;35061;47.664;9.166;2023-04-06T14:11:13;5.32;;;4.15;;
18754;SDS011;35061;47.664;9.166;2023-04-06T14:13:42;6.70;;;4.03;;
18754;SDS011;35061;47.664;9.166;2023-04-06T14:16:10;5.37;;;4.18;;
18754;SDS011;35061;47.664;9.166;2023-04-06T14:18:38;7.78;;;4.53;;
18754;SDS011;35061;47.664;9.166;2023-04-06T14:21:06;6.45;;;4.07;;
18754;SDS011;35061;47.664;9.166;2023-04-06T14:23:34;6.53;;;4.22;;
18754;SDS011;35061;47.664;9.166;2023-04-06T14:28:34;4.25;;;3.85;;
18754;SDS011;35061;47.664;9.166;2023-04-06T14:31:09;7.30;;;4.75;;
18754;SDS011;35061;47.664;9.166;2023-04-06T14:33:39;5.65;;;4.05;;
18754;SDS011;35061;47.664;9.166;2023-04-06T14:36:08;6.20;;;4.78;;
18754;SDS011;35061;47.664;9.166;2023-04-06T14:38:37;6.05;;;4.43;;
18754;SDS011;35061;47.664;9.166;2023-04-06T14:41:05;5.60;;;4.15;;
18754;SDS011;35061;47.664;9.166;2023-04-06T14:43:34;6.12;;;4.18;;
18754;SDS011;35061;47.664;9.166;2023-04-06T14:46:02;4.47;;;3.90;;
18754;SDS011;35061;47.664;9.166;2023-04-06T14:48:30;4.65;;;3.87;;
18754;SDS011;35061;47.664;9.166;2023-04-06T14:50:58;5.07;;;3.90;;
18754;SDS011;35061;47.664;9.166;2023-04-06T14:53:26;8.15;;;5.12;;
18754;SDS011;35061;47.664;9.166;2023-04-06T14:55:55;5.85;;;4.50;;
18754;SDS011;35061;47.664;9.166;2023-04-06T14:58:24;7.07;;;4.40;;
18754;SDS011;35061;47.664;9.166;2023-04-06T15:00:59;7.90;;;4.60;;
18754;SDS011;35061;47.664;9.166;2023-04-06T15:03:28;5.57;;;4.32;;